Marietta, SC (29661)

9:43 AM EDT on August 31, 2015 (GMT -0400)
Highway 11 | | Change Station
CLOSE
Current Station
Personal Weather Station
Location: Marietta, SC
Elevation: 1345 ft
Nearby Weather Stations

Elev 1345 ft 35.09 °N, 82.49 °W | Updated 22 seconds ago

Clear
Clear
65.5 °F
Feels Like 65.5 °F
N
0.0
Wind Variable Wind from WNW
Gusts 0.0 mph

Today
High -- | Low -- °F
--% Chance of Precip.
Yesterday
High -- | Low -- °F
Precip. -- in
7:01 AM 7:58 PM
Waning Gibbous, 95% visible
Pressure 30.12 in
Visibility 10.0 miles
Clouds Clear
Dew Point 66 °F
Humidity 100%
Rainfall 0.02 in
Snow Depth Not available.
UV 2 out of 12
Pollen 7.00 out of 12
Air Quality Not available.
Flu Activity Not available.
METAR KGMU 311253Z 35005KT 10SM CLR 21/17 A3014 RMK AO2 SLP199 T02110167
Pressure 30.12 in
Visibility 10.0 miles
Clouds Clear
Dew Point 66 °F
Humidity 100%
Rainfall 0.02 in
Snow Depth Not available.
UV 2 out of 12
Pollen 7.00 out of 12
Air Quality Not available.
Flu Activity Not available.
METAR KGMU 311253Z 35005KT 10SM CLR 21/17 A3014 RMK AO2 SLP199 T02110167

10-Day Weather Forecast

×

Almanac

Astronomy

Aug. 31, 2015 Rise Set
Actual Time
Civil Twilight
Nautical Twilight
Astronomical Twilight
Moon
Length of Visible Light
Length of Day
Tomorrow will be .
, % of the Moon is Illuminated

Today's Extremes

State Highs State Lows

Community

WunderPhotos

Upload Photos

1,851,240 photos uploaded!

WunderBlogs® & News

Nearby

Air Quality

  Air Quality AQ Index Pollutant
Not available.

Snow Depth

Station Depth Elevation

Earthquake Activity

City Distance Mag. Time & Date
Minimum magnitude displayed is 2.5.

Coastal Water Temperatures

Place Temperature

Stations

Nearby Weather Stations

Station Location Temp. Windchill Dew Point Humidity Wind Precip. Elev Updated Type